createdAt,value
2022-10-28T06:04:11.978Z,8.35
2022-10-28T06:06:38.932Z,7.97
2022-10-28T06:09:05.793Z,8.63
2022-10-28T06:11:31.152Z,9.82
2022-10-28T06:13:57.904Z,11.55
2022-10-28T06:16:24.740Z,11.80
2022-10-28T06:18:51.518Z,13.23
2022-10-28T06:21:18.312Z,14.25
2022-10-28T06:23:45.705Z,13.20
2022-10-28T06:26:12.761Z,13.43
2022-10-28T06:28:39.564Z,12.68
2022-10-28T06:31:07.875Z,11.80
2022-10-28T06:33:35.095Z,10.73
2022-10-28T06:36:02.253Z,10.27
2022-10-28T06:38:29.483Z,8.13
2022-10-28T06:40:58.010Z,8.07
2022-10-28T06:43:24.825Z,7.53
2022-10-28T06:45:55.601Z,11.18
2022-10-28T06:48:24.529Z,8.75
2022-10-28T06:50:51.414Z,11.07
2022-10-28T06:53:18.382Z,9.85
2022-10-28T06:55:52.751Z,10.55
2022-10-28T06:58:19.618Z,8.77
2022-10-28T07:00:46.681Z,10.02
2022-10-28T07:03:16.809Z,8.80
2022-10-28T07:05:43.639Z,9.38
2022-10-28T07:08:10.545Z,9.52
2022-10-28T07:10:37.602Z,10.25
2022-10-28T07:13:04.484Z,9.65
2022-10-28T07:15:31.562Z,10.48
2022-10-28T07:17:59.473Z,9.45
2022-10-28T07:20:27.963Z,12.52
2022-10-28T07:23:00.071Z,11.90
2022-10-28T07:25:29.125Z,12.15
2022-10-28T07:27:59.672Z,14.18
2022-10-28T07:30:27.677Z,13.57
2022-10-28T07:32:54.973Z,13.20
2022-10-28T07:35:22.199Z,13.18
2022-10-28T07:37:49.079Z,13.43
2022-10-28T07:40:18.513Z,13.55
2022-10-28T07:42:45.320Z,11.82
2022-10-28T07:45:12.388Z,14.00
2022-10-28T07:47:42.247Z,13.77
2022-10-28T07:50:09.673Z,14.15
2022-10-28T10:30:39.991Z,17.40
2022-10-28T10:33:16.486Z,17.05
2022-10-28T10:35:43.293Z,16.27
2022-10-28T10:38:15.684Z,17.42
2022-10-28T10:40:50.973Z,18.02
2022-10-28T10:43:17.758Z,16.20
2022-10-28T10:46:00.429Z,17.92
2022-10-28T10:50:58.046Z,17.90
2022-10-28T10:53:30.683Z,18.52
2022-10-28T10:56:02.933Z,20.10
2022-10-28T10:58:39.986Z,18.90
2022-10-28T11:01:09.569Z,21.55
2022-10-28T11:06:31.098Z,22.63
2022-10-28T11:09:02.500Z,18.77
2022-10-28T11:11:38.227Z,20.73
2022-10-28T11:14:10.917Z,21.25
2022-10-28T11:16:49.717Z,20.80
2022-10-28T11:19:30.992Z,20.38
2022-10-28T11:22:04.907Z,18.85
2022-10-28T11:24:46.427Z,21.00
2022-10-28T11:27:40.355Z,18.95
2022-10-28T11:30:14.571Z,18.33
2022-10-28T11:33:14.751Z,18.25
2022-10-28T11:36:18.919Z,18.98
2022-10-28T11:39:09.581Z,17.13
2022-10-28T11:42:04.056Z,18.00
2022-10-28T11:44:47.104Z,18.48
2022-10-28T11:47:36.452Z,16.80
2022-10-28T11:50:30.154Z,18.27
2022-10-28T11:53:22.440Z,17.10
2022-10-28T11:56:15.731Z,17.83
2022-10-28T11:59:15.481Z,16.80
2022-10-28T12:01:54.447Z,17.88
2022-10-28T12:04:33.407Z,16.10
2022-10-28T12:07:29.824Z,15.68
2022-10-28T12:10:19.509Z,15.55
2022-10-28T12:13:04.228Z,14.88
2022-10-28T12:15:39.596Z,12.88
2022-10-28T12:18:28.543Z,12.15
2022-10-28T12:21:15.471Z,11.02
2022-10-28T12:23:43.803Z,11.45
2022-10-28T12:26:15.605Z,11.50
2022-10-28T12:28:53.844Z,10.65
2022-10-28T12:31:32.281Z,9.55
2022-10-28T22:21:41.166Z,13.02
2022-10-28T22:24:08.314Z,13.23
2022-10-28T22:26:35.162Z,12.15
2022-10-28T22:29:02.149Z,11.63
2022-10-28T22:31:33.656Z,11.77
2022-10-28T22:34:00.847Z,11.75
2022-10-28T22:36:29.603Z,11.32
2022-10-28T22:38:56.523Z,10.85
2022-10-28T22:41:25.974Z,10.93
2022-10-28T22:43:55.280Z,10.85
2022-10-28T22:46:24.345Z,12.55
2022-10-28T22:48:51.206Z,13.90
2022-10-28T22:51:18.330Z,15.45
2022-10-28T22:53:45.641Z,15.18
2022-10-28T22:56:20.290Z,15.27
2022-10-28T22:58:48.211Z,14.80
2022-10-28T23:01:19.528Z,16.25
2022-10-28T23:03:48.448Z,15.10
2022-10-28T23:06:16.485Z,13.18
2022-10-28T23:08:47.375Z,14.75
2022-10-28T23:11:16.033Z,15.52
2022-10-28T23:13:42.935Z,15.43
2022-10-28T23:16:12.381Z,14.35
2022-10-28T23:18:40.078Z,16.17
2022-10-28T23:21:13.088Z,15.05
2022-10-28T23:23:40.935Z,13.38
2022-10-28T23:26:13.212Z,10.82
2022-10-28T23:28:40.852Z,12.88
2022-10-28T23:31:08.346Z,13.30
2022-10-28T23:33:35.380Z,12.02
2022-10-28T23:36:06.093Z,13.85
2022-10-28T23:38:33.223Z,13.43
